sensor_id;sensor_type;location;lat;lon;timestamp;pressure;altitude;pressure_sealevel;temperature
24639;BMP180;1641;51.306;12.384;2023-03-12T00:01:44;99702.00;;;1.50
24639;BMP180;1641;51.306;12.384;2023-03-12T00:04:09;99729.00;;;1.20
24639;BMP180;1641;51.306;12.384;2023-03-12T00:06:36;99748.00;;;1.20
24639;BMP180;1641;51.306;12.384;2023-03-12T00:09:01;99740.00;;;1.00
24639;BMP180;1641;51.306;12.384;2023-03-12T00:11:28;99691.00;;;1.30
24639;BMP180;1641;51.306;12.384;2023-03-12T00:13:55;99731.00;;;1.40
24639;BMP180;1641;51.306;12.384;2023-03-12T00:16:21;99741.00;;;1.30
24639;BMP180;1641;51.306;12.384;2023-03-12T00:18:48;99742.00;;;1.20
24639;BMP180;1641;51.306;12.384;2023-03-12T00:21:13;99669.00;;;1.20
24639;BMP180;1641;51.306;12.384;2023-03-12T00:23:39;99729.00;;;1.30
24639;BMP180;1641;51.306;12.384;2023-03-12T00:26:08;99756.00;;;1.20
24639;BMP180;1641;51.306;12.384;2023-03-12T00:28:34;99729.00;;;1.20
24639;BMP180;1641;51.306;12.384;2023-03-12T00:31:00;99749.00;;;1.00
24639;BMP180;1641;51.306;12.384;2023-03-12T00:33:27;99755.00;;;1.10
24639;BMP180;1641;51.306;12.384;2023-03-12T00:35:55;99742.00;;;1.20
24639;BMP180;1641;51.306;12.384;2023-03-12T00:38:21;99735.00;;;1.40
24639;BMP180;1641;51.306;12.384;2023-03-12T00:40:46;99758.00;;;1.40
24639;BMP180;1641;51.306;12.384;2023-03-12T00:43:12;99755.00;;;1.10
24639;BMP180;1641;51.306;12.384;2023-03-12T00:45:37;99753.00;;;1.20
24639;BMP180;1641;51.306;12.384;2023-03-12T00:48:02;99751.00;;;0.90
24639;BMP180;1641;51.306;12.384;2023-03-12T00:50:28;99742.00;;;1.00
24639;BMP180;1641;51.306;12.384;2023-03-12T00:52:53;99727.00;;;1.30
24639;BMP180;1641;51.306;12.384;2023-03-12T00:55:19;99753.00;;;1.20
24639;BMP180;1641;51.306;12.384;2023-03-12T00:57:45;99755.00;;;1.10
24639;BMP180;1641;51.306;12.384;2023-03-12T01:00:11;99753.00;;;1.00
24639;BMP180;1641;51.306;12.384;2023-03-12T01:02:37;99764.00;;;1.10
24639;BMP180;1641;51.306;12.384;2023-03-12T01:05:05;99761.00;;;1.10
24639;BMP180;1641;51.306;12.384;2023-03-12T01:07:30;99743.00;;;1.10
24639;BMP180;1641;51.306;12.384;2023-03-12T01:09:55;99756.00;;;1.10
24639;BMP180;1641;51.306;12.384;2023-03-12T01:12:21;99740.00;;;0.90
24639;BMP180;1641;51.306;12.384;2023-03-12T01:14:46;99766.00;;;1.00
24639;BMP180;1641;51.306;12.384;2023-03-12T01:17:11;99739.00;;;1.10
24639;BMP180;1641;51.306;12.384;2023-03-12T01:19:37;99744.00;;;1.20
24639;BMP180;1641;51.306;12.384;2023-03-12T01:22:02;99756.00;;;1.30
24639;BMP180;1641;51.306;12.384;2023-03-12T01:24:27;99749.00;;;1.20
24639;BMP180;1641;51.306;12.384;2023-03-12T01:26:52;99751.00;;;1.10
24639;BMP180;1641;51.306;12.384;2023-03-12T01:29:18;99752.00;;;1.30
24639;BMP180;1641;51.306;12.384;2023-03-12T01:31:43;99763.00;;;1.40
24639;BMP180;1641;51.306;12.384;2023-03-12T01:34:10;99733.00;;;1.20
24639;BMP180;1641;51.306;12.384;2023-03-12T01:36:35;99754.00;;;1.40
24639;BMP180;1641;51.306;12.384;2023-03-12T01:39:01;99760.00;;;1.50
24639;BMP180;1641;51.306;12.384;2023-03-12T01:41:28;99763.00;;;1.10
24639;BMP180;1641;51.306;12.384;2023-03-12T01:43:56;99715.00;;;1.20
24639;BMP180;1641;51.306;12.384;2023-03-12T01:46:37;99760.00;;;1.10
24639;BMP180;1641;51.306;12.384;2023-03-12T01:51:37;99750.00;;;1.20
24639;BMP180;1641;51.306;12.384;2023-03-12T01:54:17;99752.00;;;1.20
24639;BMP180;1641;51.306;12.384;2023-03-12T01:56:44;99745.00;;;1.00
24639;BMP180;1641;51.306;12.384;2023-03-12T01:59:18;99751.00;;;1.00
24639;BMP180;1641;51.306;12.384;2023-03-12T02:01:45;99749.00;;;0.70
24639;BMP180;1641;51.306;12.384;2023-03-12T02:04:11;99749.00;;;1.20
24639;BMP180;1641;51.306;12.384;2023-03-12T02:06:45;99749.00;;;1.00
24639;BMP180;1641;51.306;12.384;2023-03-12T02:09:13;99752.00;;;1.10
24639;BMP180;1641;51.306;12.384;2023-03-12T02:11:39;99726.00;;;1.10
24639;BMP180;1641;51.306;12.384;2023-03-12T02:14:05;99720.00;;;1.10
24639;BMP180;1641;51.306;12.384;2023-03-12T02:16:30;99751.00;;;1.10
24639;BMP180;1641;51.306;12.384;2023-03-12T02:18:59;99722.00;;;1.00
24639;BMP180;1641;51.306;12.384;2023-03-12T02:21:31;99740.00;;;1.30
24639;BMP180;1641;51.306;12.384;2023-03-12T02:24:27;99731.00;;;1.00
24639;BMP180;1641;51.306;12.384;2023-03-12T02:26:55;99753.00;;;0.70
24639;BMP180;1641;51.306;12.384;2023-03-12T02:29:21;99749.00;;;0.60
24639;BMP180;1641;51.306;12.384;2023-03-12T02:31:51;99742.00;;;0.50
24639;BMP180;1641;51.306;12.384;2023-03-12T02:34:24;99736.00;;;0.30
24639;BMP180;1641;51.306;12.384;2023-03-12T02:36:49;99729.00;;;0.50
24639;BMP180;1641;51.306;12.384;2023-03-12T02:39:15;99747.00;;;0.80
24639;BMP180;1641;51.306;12.384;2023-03-12T02:41:43;99747.00;;;0.80
24639;BMP180;1641;51.306;12.384;2023-03-12T02:44:19;99768.00;;;0.90
24639;BMP180;1641;51.306;12.384;2023-03-12T02:46:47;99763.00;;;1.20
24639;BMP180;1641;51.306;12.384;2023-03-12T02:49:14;99765.00;;;0.90
24639;BMP180;1641;51.306;12.384;2023-03-12T02:51:40;99764.00;;;0.80
24639;BMP180;1641;51.306;12.384;2023-03-12T02:54:06;99763.00;;;0.80
24639;BMP180;1641;51.306;12.384;2023-03-12T02:56:32;99767.00;;;1.00
24639;BMP180;1641;51.306;12.384;2023-03-12T02:59:00;99722.00;;;0.90
24639;BMP180;1641;51.306;12.384;2023-03-12T03:01:26;99744.00;;;0.90
24639;BMP180;1641;51.306;12.384;2023-03-12T03:03:52;99780.00;;;0.90
24639;BMP180;1641;51.306;12.384;2023-03-12T03:06:19;99763.00;;;1.00
24639;BMP180;1641;51.306;12.384;2023-03-12T03:08:44;99767.00;;;0.80
24639;BMP180;1641;51.306;12.384;2023-03-12T03:11:10;99779.00;;;0.50
24639;BMP180;1641;51.306;12.384;2023-03-12T03:13:35;99779.00;;;1.10
24639;BMP180;1641;51.306;12.384;2023-03-12T03:16:01;99772.00;;;0.90
24639;BMP180;1641;51.306;12.384;2023-03-12T03:18:31;99776.00;;;1.00
24639;BMP180;1641;51.306;12.384;2023-03-12T03:21:01;99782.00;;;0.60
24639;BMP180;1641;51.306;12.384;2023-03-12T03:23:26;99785.00;;;0.90
24639;BMP180;1641;51.306;12.384;2023-03-12T03:25:52;99794.00;;;0.90
24639;BMP180;1641;51.306;12.384;2023-03-12T03:28:23;99785.00;;;0.80
24639;BMP180;1641;51.306;12.384;2023-03-12T03:30:51;99787.00;;;0.80
24639;BMP180;1641;51.306;12.384;2023-03-12T03:33:16;99789.00;;;0.80
24639;BMP180;1641;51.306;12.384;2023-03-12T03:35:42;99799.00;;;0.60
24639;BMP180;1641;51.306;12.384;2023-03-12T03:38:07;99793.00;;;0.90
24639;BMP180;1641;51.306;12.384;2023-03-12T03:40:32;99787.00;;;1.00
24639;BMP180;1641;51.306;12.384;2023-03-12T03:42:58;99783.00;;;0.50
24639;BMP180;1641;51.306;12.384;2023-03-12T03:45:23;99780.00;;;0.50
24639;BMP180;1641;51.306;12.384;2023-03-12T03:47:54;99786.00;;;0.60
24639;BMP180;1641;51.306;12.384;2023-03-12T03:50:19;99789.00;;;0.70
24639;BMP180;1641;51.306;12.384;2023-03-12T03:52:45;99792.00;;;0.60
24639;BMP180;1641;51.306;12.384;2023-03-12T03:55:13;99799.00;;;0.60
24639;BMP180;1641;51.306;12.384;2023-03-12T03:57:38;99795.00;;;0.90
24639;BMP180;1641;51.306;12.384;2023-03-12T04:00:04;99789.00;;;0.80
24639;BMP180;1641;51.306;12.384;2023-03-12T04:02:36;99791.00;;;0.70
24639;BMP180;1641;51.306;12.384;2023-03-12T04:05:01;99788.00;;;0.60
24639;BMP180;1641;51.306;12.384;2023-03-12T04:07:27;99793.00;;;0.80
24639;BMP180;1641;51.306;12.384;2023-03-12T04:09:53;99798.00;;;0.60
24639;BMP180;1641;51.306;12.384;2023-03-12T04:12:21;99804.00;;;0.30
24639;BMP180;1641;51.306;12.384;2023-03-12T04:14:50;99800.00;;;0.40
24639;BMP180;1641;51.306;12.384;2023-03-12T04:17:15;99788.00;;;0.40
24639;BMP180;1641;51.306;12.384;2023-03-12T04:19:40;99768.00;;;0.50
24639;BMP180;1641;51.306;12.384;2023-03-12T04:22:05;99810.00;;;0.40
24639;BMP180;1641;51.306;12.384;2023-03-12T04:24:31;99807.00;;;0.40
24639;BMP180;1641;51.306;12.384;2023-03-12T04:26:56;99786.00;;;0.30
24639;BMP180;1641;51.306;12.384;2023-03-12T04:29:22;99804.00;;;0.30
24639;BMP180;1641;51.306;12.384;2023-03-12T04:31:48;99810.00;;;0.50
24639;BMP180;1641;51.306;12.384;2023-03-12T04:34:13;99806.00;;;0.40
24639;BMP180;1641;51.306;12.384;2023-03-12T04:36:38;99806.00;;;0.50
24639;BMP180;1641;51.306;12.384;2023-03-12T04:39:07;99786.00;;;0.50
24639;BMP180;1641;51.306;12.384;2023-03-12T04:41:33;99799.00;;;0.50
24639;BMP180;1641;51.306;12.384;2023-03-12T04:43:59;99776.00;;;0.60
24639;BMP180;1641;51.306;12.384;2023-03-12T04:46:24;99803.00;;;0.70
24639;BMP180;1641;51.306;12.384;2023-03-12T04:48:50;99786.00;;;0.70
24639;BMP180;1641;51.306;12.384;2023-03-12T04:51:15;99746.00;;;0.50
24639;BMP180;1641;51.306;12.384;2023-03-12T04:53:41;99799.00;;;0.70
24639;BMP180;1641;51.306;12.384;2023-03-12T04:56:06;99800.00;;;0.30
24639;BMP180;1641;51.306;12.384;2023-03-12T04:58:31;99804.00;;;0.50
24639;BMP180;1641;51.306;12.384;2023-03-12T05:00:57;99780.00;;;0.40
24639;BMP180;1641;51.306;12.384;2023-03-12T05:03:25;99802.00;;;0.50
24639;BMP180;1641;51.306;12.384;2023-03-12T05:05:50;99796.00;;;0.70
24639;BMP180;1641;51.306;12.384;2023-03-12T05:08:18;99752.00;;;0.60
24639;BMP180;1641;51.306;12.384;2023-03-12T05:10:44;99807.00;;;0.50
24639;BMP180;1641;51.306;12.384;2023-03-12T05:13:14;99808.00;;;0.60
24639;BMP180;1641;51.306;12.384;2023-03-12T05:15:41;99803.00;;;0.60
24639;BMP180;1641;51.306;12.384;2023-03-12T05:18:06;99795.00;;;0.70
24639;BMP180;1641;51.306;12.384;2023-03-12T05:20:31;99798.00;;;0.70
24639;BMP180;1641;51.306;12.384;2023-03-12T05:22:56;99801.00;;;0.60
24639;BMP180;1641;51.306;12.384;2023-03-12T05:25:22;99756.00;;;0.50
24639;BMP180;1641;51.306;12.384;2023-03-12T05:27:47;99759.00;;;0.50
24639;BMP180;1641;51.306;12.384;2023-03-12T05:30:12;99812.00;;;0.40
24639;BMP180;1641;51.306;12.384;2023-03-12T05:32:38;99806.00;;;0.50
24639;BMP180;1641;51.306;12.384;2023-03-12T05:35:06;99804.00;;;0.60
24639;BMP180;1641;51.306;12.384;2023-03-12T05:37:31;99789.00;;;0.40
24639;BMP180;1641;51.306;12.384;2023-03-12T05:39:57;99800.00;;;0.30
24639;BMP180;1641;51.306;12.384;2023-03-12T05:42:23;99803.00;;;0.30
24639;BMP180;1641;51.306;12.384;2023-03-12T05:44:51;99806.00;;;0.60
24639;BMP180;1641;51.306;12.384;2023-03-12T05:47:17;99819.00;;;0.50
24639;BMP180;1641;51.306;12.384;2023-03-12T05:49:43;99781.00;;;0.60
24639;BMP180;1641;51.306;12.384;2023-03-12T05:52:08;99823.00;;;0.40
24639;BMP180;1641;51.306;12.384;2023-03-12T05:54:34;99792.00;;;0.50
24639;BMP180;1641;51.306;12.384;2023-03-12T05:56:59;99808.00;;;0.50
24639;BMP180;1641;51.306;12.384;2023-03-12T05:59:24;99762.00;;;0.50
24639;BMP180;1641;51.306;12.384;2023-03-12T06:01:50;99745.00;;;0.80
24639;BMP180;1641;51.306;12.384;2023-03-12T06:04:15;99812.00;;;0.80
24639;BMP180;1641;51.306;12.384;2023-03-12T06:06:40;99761.00;;;0.90
24639;BMP180;1641;51.306;12.384;2023-03-12T06:09:06;99789.00;;;0.90
24639;BMP180;1641;51.306;12.384;2023-03-12T06:11:33;99808.00;;;0.90
24639;BMP180;1641;51.306;12.384;2023-03-12T06:13:58;99794.00;;;0.90
24639;BMP180;1641;51.306;12.384;2023-03-12T06:16:25;99800.00;;;0.80
24639;BMP180;1641;51.306;12.384;2023-03-12T06:18:53;99813.00;;;0.90
24639;BMP180;1641;51.306;12.384;2023-03-12T06:21:24;99768.00;;;0.90
24639;BMP180;1641;51.306;12.384;2023-03-12T06:23:50;99805.00;;;0.80
24639;BMP180;1641;51.306;12.384;2023-03-12T06:26:17;99798.00;;;1.00
24639;BMP180;1641;51.306;12.384;2023-03-12T06:28:44;99789.00;;;1.10
24639;BMP180;1641;51.306;12.384;2023-03-12T06:31:09;99792.00;;;2.20
24639;BMP180;1641;51.306;12.384;2023-03-12T06:33:35;99817.00;;;2.90
24639;BMP180;1641;51.306;12.384;2023-03-12T06:36:01;99800.00;;;3.70
24639;BMP180;1641;51.306;12.384;2023-03-12T06:38:28;99805.00;;;4.40
24639;BMP180;1641;51.306;12.384;2023-03-12T06:41:04;99818.00;;;4.40
24639;BMP180;1641;51.306;12.384;2023-03-12T06:43:32;99827.00;;;5.00
24639;BMP180;1641;51.306;12.384;2023-03-12T06:45:58;99821.00;;;5.10
24639;BMP180;1641;51.306;12.384;2023-03-12T06:48:25;99820.00;;;4.40
24639;BMP180;1641;51.306;12.384;2023-03-12T06:50:51;99822.00;;;4.40
24639;BMP180;1641;51.306;12.384;2023-03-12T06:53:17;99764.00;;;4.60
24639;BMP180;1641;51.306;12.384;2023-03-12T06:55:43;99820.00;;;5.00
24639;BMP180;1641;51.306;12.384;2023-03-12T06:58:09;99819.00;;;5.10
24639;BMP180;1641;51.306;12.384;2023-03-12T07:00:35;99818.00;;;5.30
24639;BMP180;1641;51.306;12.384;2023-03-12T07:03:01;99802.00;;;6.00
24639;BMP180;1641;51.306;12.384;2023-03-12T07:05:26;99823.00;;;6.30
24639;BMP180;1641;51.306;12.384;2023-03-12T07:07:51;99783.00;;;6.20
24639;BMP180;1641;51.306;12.384;2023-03-12T07:10:17;99826.00;;;5.90
24639;BMP180;1641;51.306;12.384;2023-03-12T07:12:43;99828.00;;;5.60
24639;BMP180;1641;51.306;12.384;2023-03-12T07:15:09;99804.00;;;5.60
24639;BMP180;1641;51.306;12.384;2023-03-12T07:17:35;99822.00;;;6.10
24639;BMP180;1641;51.306;12.384;2023-03-12T07:20:02;99752.00;;;6.80
24639;BMP180;1641;51.306;12.384;2023-03-12T07:22:27;99821.00;;;6.80
24639;BMP180;1641;51.306;12.384;2023-03-12T07:24:52;99781.00;;;7.00
24639;BMP180;1641;51.306;12.384;2023-03-12T07:27:18;99805.00;;;7.30
24639;BMP180;1641;51.306;12.384;2023-03-12T07:29:43;99786.00;;;7.90
24639;BMP180;1641;51.306;12.384;2023-03-12T07:32:08;99776.00;;;9.20
24639;BMP180;1641;51.306;12.384;2023-03-12T07:34:34;99792.00;;;9.90
24639;BMP180;1641;51.306;12.384;2023-03-12T07:36:59;99812.00;;;10.10
24639;BMP180;1641;51.306;12.384;2023-03-12T07:39:24;99802.00;;;9.60
24639;BMP180;1641;51.306;12.384;2023-03-12T07:41:50;99804.00;;;10.30
24639;BMP180;1641;51.306;12.384;2023-03-12T07:44:15;99813.00;;;10.80
24639;BMP180;1641;51.306;12.384;2023-03-12T07:46:40;99766.00;;;10.40
24639;BMP180;1641;51.306;12.384;2023-03-12T07:49:06;99810.00;;;10.30
24639;BMP180;1641;51.306;12.384;2023-03-12T07:51:31;99796.00;;;9.70
24639;BMP180;1641;51.306;12.384;2023-03-12T07:53:57;99737.00;;;9.20
24639;BMP180;1641;51.306;12.384;2023-03-12T07:56:23;99798.00;;;9.50
24639;BMP180;1641;51.306;12.384;2023-03-12T07:58:48;99762.00;;;8.60
24639;BMP180;1641;51.306;12.384;2023-03-12T08:01:13;99759.00;;;7.70
24639;BMP180;1641;51.306;12.384;2023-03-12T08:03:38;99784.00;;;8.10
24639;BMP180;1641;51.306;12.384;2023-03-12T08:06:04;99769.00;;;8.50
24639;BMP180;1641;51.306;12.384;2023-03-12T08:08:32;99809.00;;;9.20
24639;BMP180;1641;51.306;12.384;2023-03-12T08:10:58;99803.00;;;9.40
24639;BMP180;1641;51.306;12.384;2023-03-12T08:13:25;99757.00;;;9.20
24639;BMP180;1641;51.306;12.384;2023-03-12T08:15:51;99806.00;;;8.80
24639;BMP180;1641;51.306;12.384;2023-03-12T08:18:18;99781.00;;;9.20
24639;BMP180;1641;51.306;12.384;2023-03-12T08:20:43;99770.00;;;9.80
24639;BMP180;1641;51.306;12.384;2023-03-12T08:23:08;99808.00;;;9.50
24639;BMP180;1641;51.306;12.384;2023-03-12T08:25:34;99789.00;;;10.00
24639;BMP180;1641;51.306;12.384;2023-03-12T08:28:01;99770.00;;;10.00
24639;BMP180;1641;51.306;12.384;2023-03-12T08:30:27;99754.00;;;9.70
24639;BMP180;1641;51.306;12.384;2023-03-12T08:32:53;99800.00;;;9.30
24639;BMP180;1641;51.306;12.384;2023-03-12T08:35:18;99799.00;;;9.00
24639;BMP180;1641;51.306;12.384;2023-03-12T08:37:43;99800.00;;;8.90
24639;BMP180;1641;51.306;12.384;2023-03-12T08:40:09;99762.00;;;8.80
24639;BMP180;1641;51.306;12.384;2023-03-12T08:42:42;99790.00;;;8.70
24639;BMP180;1641;51.306;12.384;2023-03-12T08:45:08;99744.00;;;8.80
24639;BMP180;1641;51.306;12.384;2023-03-12T08:47:34;99730.00;;;9.40
24639;BMP180;1641;51.306;12.384;2023-03-12T08:50:00;99775.00;;;10.50
24639;BMP180;1641;51.306;12.384;2023-03-12T08:52:25;99723.00;;;10.20
24639;BMP180;1641;51.306;12.384;2023-03-12T08:54:50;99734.00;;;10.20
24639;BMP180;1641;51.306;12.384;2023-03-12T08:57:16;99714.00;;;9.90
24639;BMP180;1641;51.306;12.384;2023-03-12T08:59:41;99775.00;;;8.20
24639;BMP180;1641;51.306;12.384;2023-03-12T09:02:10;99747.00;;;7.80
24639;BMP180;1641;51.306;12.384;2023-03-12T09:04:35;99777.00;;;7.70
24639;BMP180;1641;51.306;12.384;2023-03-12T09:07:01;99726.00;;;7.50
24639;BMP180;1641;51.306;12.384;2023-03-12T09:09:26;99763.00;;;7.70
24639;BMP180;1641;51.306;12.384;2023-03-12T09:11:52;99740.00;;;7.50
24639;BMP180;1641;51.306;12.384;2023-03-12T09:14:18;99752.00;;;7.90
24639;BMP180;1641;51.306;12.384;2023-03-12T09:16:44;99735.00;;;8.90
24639;BMP180;1641;51.306;12.384;2023-03-12T09:19:09;99766.00;;;9.00
24639;BMP180;1641;51.306;12.384;2023-03-12T09:21:34;99746.00;;;8.90
24639;BMP180;1641;51.306;12.384;2023-03-12T09:24:00;99736.00;;;8.80
24639;BMP180;1641;51.306;12.384;2023-03-12T09:26:31;99717.00;;;8.40
24639;BMP180;1641;51.306;12.384;2023-03-12T09:28:57;99741.00;;;8.00
24639;BMP180;1641;51.306;12.384;2023-03-12T09:31:24;99733.00;;;8.00
24639;BMP180;1641;51.306;12.384;2023-03-12T09:34:08;99755.00;;;8.10
24639;BMP180;1641;51.306;12.384;2023-03-12T09:36:37;99762.00;;;8.70
24639;BMP180;1641;51.306;12.384;2023-03-12T09:39:15;99721.00;;;8.30
24639;BMP180;1641;51.306;12.384;2023-03-12T09:41:45;99747.00;;;8.40
24639;BMP180;1641;51.306;12.384;2023-03-12T09:44:35;99728.00;;;9.30
24639;BMP180;1641;51.306;12.384;2023-03-12T09:47:13;99753.00;;;9.10
24639;BMP180;1641;51.306;12.384;2023-03-12T09:49:45;99747.00;;;8.90
24639;BMP180;1641;51.306;12.384;2023-03-12T09:52:36;99741.00;;;8.70
24639;BMP180;1641;51.306;12.384;2023-03-12T09:55:19;99748.00;;;8.80
24639;BMP180;1641;51.306;12.384;2023-03-12T09:57:49;99734.00;;;8.70
24639;BMP180;1641;51.306;12.384;2023-03-12T10:00:37;99744.00;;;8.30
24639;BMP180;1641;51.306;12.384;2023-03-12T10:03:22;99740.00;;;8.50
24639;BMP180;1641;51.306;12.384;2023-03-12T10:11:43;99726.00;;;8.70
24639;BMP180;1641;51.306;12.384;2023-03-12T10:14:42;99726.00;;;9.30
24639;BMP180;1641;51.306;12.384;2023-03-12T10:20:14;99718.00;;;8.10
24639;BMP180;1641;51.306;12.384;2023-03-12T10:26:18;99713.00;;;8.00
24639;BMP180;1641;51.306;12.384;2023-03-12T10:28:50;99720.00;;;8.00
24639;BMP180;1641;51.306;12.384;2023-03-12T10:31:54;99724.00;;;8.10
24639;BMP180;1641;51.306;12.384;2023-03-12T10:34:27;99724.00;;;7.60
24639;BMP180;1641;51.306;12.384;2023-03-12T10:36:52;99723.00;;;8.10
24639;BMP180;1641;51.306;12.384;2023-03-12T10:39:23;99714.00;;;8.50
24639;BMP180;1641;51.306;12.384;2023-03-12T10:42:00;99661.00;;;8.20
24639;BMP180;1641;51.306;12.384;2023-03-12T10:44:33;99719.00;;;8.20
24639;BMP180;1641;51.306;12.384;2023-03-12T10:50:18;99715.00;;;8.80
24639;BMP180;1641;51.306;12.384;2023-03-12T10:52:44;99710.00;;;7.90
24639;BMP180;1641;51.306;12.384;2023-03-12T10:55:41;99713.00;;;7.50
24639;BMP180;1641;51.306;12.384;2023-03-12T10:58:21;99698.00;;;7.80
24639;BMP180;1641;51.306;12.384;2023-03-12T11:00:55;99700.00;;;7.50
24639;BMP180;1641;51.306;12.384;2023-03-12T11:03:21;99695.00;;;7.80
24639;BMP180;1641;51.306;12.384;2023-03-12T11:05:49;99686.00;;;8.00
24639;BMP180;1641;51.306;12.384;2023-03-12T11:08:20;99685.00;;;8.40
24639;BMP180;1641;51.306;12.384;2023-03-12T11:11:04;99685.00;;;8.70
24639;BMP180;1641;51.306;12.384;2023-03-12T11:14:03;99687.00;;;8.30
24639;BMP180;1641;51.306;12.384;2023-03-12T11:16:41;99659.00;;;8.30
24639;BMP180;1641;51.306;12.384;2023-03-12T11:19:11;99690.00;;;8.60
24639;BMP180;1641;51.306;12.384;2023-03-12T11:21:37;99629.00;;;8.30
24639;BMP180;1641;51.306;12.384;2023-03-12T11:24:29;99669.00;;;8.60
24639;BMP180;1641;51.306;12.384;2023-03-12T11:27:14;99656.00;;;8.60
24639;BMP180;1641;51.306;12.384;2023-03-12T11:29:44;99653.00;;;8.60
24639;BMP180;1641;51.306;12.384;2023-03-12T11:32:32;99641.00;;;9.10
24639;BMP180;1641;51.306;12.384;2023-03-12T11:35:01;99649.00;;;9.30
24639;BMP180;1641;51.306;12.384;2023-03-12T11:41:08;99647.00;;;8.80
24639;BMP180;1641;51.306;12.384;2023-03-12T11:44:01;99630.00;;;8.90
24639;BMP180;1641;51.306;12.384;2023-03-12T11:46:42;99612.00;;;9.40
24639;BMP180;1641;51.306;12.384;2023-03-12T11:49:39;99612.00;;;9.10
24639;BMP180;1641;51.306;12.384;2023-03-12T11:52:18;99622.00;;;8.90
24639;BMP180;1641;51.306;12.384;2023-03-12T11:55:37;99616.00;;;8.50
24639;BMP180;1641;51.306;12.384;2023-03-12T11:58:00;99611.00;;;9.20
24639;BMP180;1641;51.306;12.384;2023-03-12T12:00:51;99606.00;;;9.50
24639;BMP180;1641;51.306;12.384;2023-03-12T12:12:12;99577.00;;;9.70
24639;BMP180;1641;51.306;12.384;2023-03-12T12:15:02;99575.00;;;10.20
24639;BMP180;1641;51.306;12.384;2023-03-12T12:24:09;99553.00;;;10.20
24639;BMP180;1641;51.306;12.384;2023-03-12T12:32:04;99544.00;;;8.70
24639;BMP180;1641;51.306;12.384;2023-03-12T12:34:44;99546.00;;;9.10
24639;BMP180;1641;51.306;12.384;2023-03-12T12:37:40;99549.00;;;9.90
24639;BMP180;1641;51.306;12.384;2023-03-12T12:42:57;99478.00;;;9.30
24639;BMP180;1641;51.306;12.384;2023-03-12T12:45:25;99516.00;;;9.80
24639;BMP180;1641;51.306;12.384;2023-03-12T12:47:57;99525.00;;;10.00
24639;BMP180;1641;51.306;12.384;2023-03-12T12:50:28;99529.00;;;9.70
24639;BMP180;1641;51.306;12.384;2023-03-12T12:53:01;99521.00;;;9.60
24639;BMP180;1641;51.306;12.384;2023-03-12T12:55:32;99524.00;;;9.50
24639;BMP180;1641;51.306;12.384;2023-03-12T12:58:11;99482.00;;;9.80
24639;BMP180;1641;51.306;12.384;2023-03-12T13:00:50;99468.00;;;9.10
24639;BMP180;1641;51.306;12.384;2023-03-12T13:03:20;99470.00;;;9.00
24639;BMP180;1641;51.306;12.384;2023-03-12T13:06:06;99523.00;;;8.90
24639;BMP180;1641;51.306;12.384;2023-03-12T13:13:48;99508.00;;;9.60
24639;BMP180;1641;51.306;12.384;2023-03-12T13:18:54;99532.00;;;9.20
24639;BMP180;1641;51.306;12.384;2023-03-12T13:21:30;99491.00;;;8.70
24639;BMP180;1641;51.306;12.384;2023-03-12T13:24:09;99539.00;;;8.10
24639;BMP180;1641;51.306;12.384;2023-03-12T13:26:43;99540.00;;;8.20
24639;BMP180;1641;51.306;12.384;2023-03-12T13:29:40;99534.00;;;8.50
24639;BMP180;1641;51.306;12.384;2023-03-12T13:35:06;99483.00;;;8.10
24639;BMP180;1641;51.306;12.384;2023-03-12T13:45:40;99498.00;;;8.00
24639;BMP180;1641;51.306;12.384;2023-03-12T13:48:13;99499.00;;;8.10
24639;BMP180;1641;51.306;12.384;2023-03-12T13:50:49;99494.00;;;8.40
24639;BMP180;1641;51.306;12.384;2023-03-12T13:53:21;99468.00;;;7.90
24639;BMP180;1641;51.306;12.384;2023-03-12T13:55:48;99493.00;;;8.10
24639;BMP180;1641;51.306;12.384;2023-03-12T13:58:26;99478.00;;;7.90
24639;BMP180;1641;51.306;12.384;2023-03-12T14:01:03;99491.00;;;8.30
24639;BMP180;1641;51.306;12.384;2023-03-12T14:03:39;99499.00;;;8.70
24639;BMP180;1641;51.306;12.384;2023-03-12T14:06:11;99481.00;;;8.20
24639;BMP180;1641;51.306;12.384;2023-03-12T14:09:10;99484.00;;;8.10
24639;BMP180;1641;51.306;12.384;2023-03-12T14:15:08;99471.00;;;7.90
24639;BMP180;1641;51.306;12.384;2023-03-12T14:17:32;99474.00;;;8.20
24639;BMP180;1641;51.306;12.384;2023-03-12T14:20:04;99431.00;;;7.90
24639;BMP180;1641;51.306;12.384;2023-03-12T14:22:37;99468.00;;;8.20
24639;BMP180;1641;51.306;12.384;2023-03-12T14:25:39;99469.00;;;8.40
24639;BMP180;1641;51.306;12.384;2023-03-12T14:28:24;99446.00;;;8.10
24639;BMP180;1641;51.306;12.384;2023-03-12T14:30:59;99468.00;;;8.20
24639;BMP180;1641;51.306;12.384;2023-03-12T14:33:30;99456.00;;;8.30
24639;BMP180;1641;51.306;12.384;2023-03-12T14:36:15;99449.00;;;8.50
24639;BMP180;1641;51.306;12.384;2023-03-12T14:38:44;99455.00;;;8.70
24639;BMP180;1641;51.306;12.384;2023-03-12T14:41:11;99444.00;;;8.70
24639;BMP180;1641;51.306;12.384;2023-03-12T14:43:40;99370.00;;;8.30
24639;BMP180;1641;51.306;12.384;2023-03-12T14:46:14;99393.00;;;8.60
24639;BMP180;1641;51.306;12.384;2023-03-12T14:48:40;99427.00;;;8.90
24639;BMP180;1641;51.306;12.384;2023-03-12T14:51:06;99426.00;;;8.50
24639;BMP180;1641;51.306;12.384;2023-03-12T14:53:36;99414.00;;;8.50
24639;BMP180;1641;51.306;12.384;2023-03-12T14:56:11;99405.00;;;8.60
24639;BMP180;1641;51.306;12.384;2023-03-12T14:58:43;99421.00;;;8.40
24639;BMP180;1641;51.306;12.384;2023-03-12T15:01:11;99425.00;;;8.40
24639;BMP180;1641;51.306;12.384;2023-03-12T15:03:46;99413.00;;;8.70
24639;BMP180;1641;51.306;12.384;2023-03-12T15:06:20;99410.00;;;8.70
24639;BMP180;1641;51.306;12.384;2023-03-12T15:08:48;99361.00;;;8.60
24639;BMP180;1641;51.306;12.384;2023-03-12T15:11:19;99411.00;;;8.50
24639;BMP180;1641;51.306;12.384;2023-03-12T15:13:45;99413.00;;;8.40
24639;BMP180;1641;51.306;12.384;2023-03-12T15:16:11;99405.00;;;8.70
24639;BMP180;1641;51.306;12.384;2023-03-12T15:18:37;99392.00;;;8.60
24639;BMP180;1641;51.306;12.384;2023-03-12T15:21:02;99394.00;;;8.40
24639;BMP180;1641;51.306;12.384;2023-03-12T15:23:29;99401.00;;;8.60
24639;BMP180;1641;51.306;12.384;2023-03-12T15:28:54;99381.00;;;8.80
24639;BMP180;1641;51.306;12.384;2023-03-12T15:31:19;99343.00;;;9.00
24639;BMP180;1641;51.306;12.384;2023-03-12T15:33:59;99351.00;;;8.90
24639;BMP180;1641;51.306;12.384;2023-03-12T15:36:26;99334.00;;;9.00
24639;BMP180;1641;51.306;12.384;2023-03-12T15:39:03;99341.00;;;8.80
24639;BMP180;1641;51.306;12.384;2023-03-12T15:41:40;99379.00;;;8.70
24639;BMP180;1641;51.306;12.384;2023-03-12T15:44:16;99378.00;;;8.70
24639;BMP180;1641;51.306;12.384;2023-03-12T15:46:45;99375.00;;;8.70